Time;durP1;ratioP1;P1;durP2;ratioP2;P2;SDS_P1;SDS_P2;PMS_P1;PMS_P2;Temp;Humidity;BMP_temperature;BMP_pressure;BME280_temperature;BME280_humidity;BME280_pressure;Samples;Min_cycle;Max_cycle;Signal;HPM_P1;HPM_P2
2022/03/26 00:00:22;;;;;;;20.80;12.40;;;3.70;99.90;3.40;101852.00;;;;4988250;28;93082;-62
2022/03/26 00:02:48;;;;;;;24.70;10.67;;;3.60;99.90;3.40;101847.00;;;;4971539;28;92989;-62
2022/03/26 00:05:15;;;;;;;19.20;10.97;;;3.60;99.90;3.40;101845.00;;;;4971122;28;94192;-63
2022/03/26 00:07:41;;;;;;;18.27;11.37;;;3.60;99.90;3.40;101843.00;;;;4971770;28;93376;-63
2022/03/26 00:10:08;;;;;;;20.93;11.90;;;3.60;99.90;3.40;101852.00;;;;4970917;28;107429;-63
2022/03/26 00:12:34;;;;;;;15.00;9.57;;;3.60;99.90;3.40;101848.00;;;;4972264;28;92757;-63
2022/03/26 00:15:00;;;;;;;17.43;9.50;;;3.60;99.90;3.40;101839.00;;;;4972640;28;92177;-62
2022/03/26 00:17:26;;;;;;;15.87;10.20;;;3.60;99.90;3.30;101841.00;;;;4973398;28;109215;-62
2022/03/26 00:19:53;;;;;;;17.20;10.90;;;3.60;99.90;3.30;101837.00;;;;4970285;28;92911;-63
2022/03/26 00:22:19;;;;;;;16.43;10.50;;;3.50;99.90;3.30;101840.00;;;;4973130;28;93750;-63
2022/03/26 00:24:45;;;;;;;15.53;10.40;;;3.50;99.90;3.20;101839.00;;;;4978798;28;112672;-62
2022/03/26 00:27:11;;;;;;;17.60;8.97;;;3.50;99.90;3.20;101846.00;;;;4986768;28;123387;-62
2022/03/26 00:29:37;;;;;;;17.40;11.03;;;3.50;99.90;3.20;101844.00;;;;4982527;28;92706;-62
2022/03/26 00:32:04;;;;;;;15.90;10.97;;;3.40;99.90;3.20;101844.00;;;;4986193;28;93115;-62
2022/03/26 00:34:31;;;;;;;14.17;11.33;;;3.40;99.90;3.20;101833.00;;;;4971211;28;93223;-62
2022/03/26 00:36:58;;;;;;;16.40;10.10;;;3.40;99.90;3.20;101845.00;;;;4971339;28;93618;-62
2022/03/26 00:39:24;;;;;;;26.50;11.03;;;3.40;99.90;3.10;101838.00;;;;4970107;28;92046;-62
2022/03/26 00:41:50;;;;;;;19.37;9.03;;;3.40;99.90;3.20;101841.00;;;;4971081;28;94217;-62
2022/03/26 00:44:16;;;;;;;11.77;8.90;;;3.30;99.90;3.10;101843.00;;;;4972022;28;95880;-63
2022/03/26 00:46:45;;;;;;;16.07;10.17;;;3.40;99.90;3.10;101846.00;;;;4972461;28;93828;-62
2022/03/26 00:49:15;;;;;;;19.00;10.13;;;3.30;99.90;3.10;101840.00;;;;4952886;28;93387;-62
2022/03/26 00:51:41;;;;;;;17.13;11.03;;;3.40;99.90;3.20;101848.00;;;;4973370;28;92803;-62
2022/03/26 00:54:08;;;;;;;14.37;9.63;;;3.40;99.90;3.10;101836.00;;;;4995097;27;93233;-62
2022/03/26 00:56:36;;;;;;;18.33;12.40;;;3.40;99.90;3.10;101847.00;;;;4994194;27;94545;-63
2022/03/26 00:59:02;;;;;;;16.73;11.27;;;3.30;99.90;3.00;101839.00;;;;4963027;28;92816;-62
2022/03/26 01:01:28;;;;;;;19.07;10.37;;;3.30;99.90;3.00;101843.00;;;;4975581;28;92748;-63
2022/03/26 01:03:54;;;;;;;20.10;10.53;;;3.20;99.90;2.90;101838.00;;;;4974109;28;114115;-63
2022/03/26 01:06:19;;;;;;;17.87;10.60;;;3.20;99.90;2.90;101837.00;;;;4973126;28;121530;-63
2022/03/26 01:08:45;;;;;;;18.07;11.23;;;3.20;99.90;2.90;101837.00;;;;4974652;28;113847;-62
2022/03/26 01:11:11;;;;;;;20.57;12.40;;;3.10;99.90;2.90;101828.00;;;;4975303;28;93765;-62
2022/03/26 01:13:38;;;;;;;24.00;12.20;;;3.10;99.90;2.90;101832.00;;;;4974285;28;100106;-62
2022/03/26 01:16:05;;;;;;;19.27;11.50;;;3.10;99.90;2.80;101832.00;;;;4973639;28;93484;-62
2022/03/26 01:18:32;;;;;;;20.83;12.00;;;3.10;99.90;2.80;101846.00;;;;4975226;28;92856;-61
2022/03/26 01:20:58;;;;;;;16.53;11.00;;;3.10;99.90;2.80;101834.00;;;;4974542;28;92935;-62
2022/03/26 01:23:23;;;;;;;19.03;11.97;;;3.00;99.90;2.80;101835.00;;;;4974931;28;107572;-62
2022/03/26 01:25:49;;;;;;;15.73;11.07;;;3.00;99.90;2.70;101823.00;;;;4989547;28;117461;-63
2022/03/26 01:28:15;;;;;;;17.70;12.60;;;3.00;99.90;2.70;101828.00;;;;4982138;28;92055;-63
2022/03/26 01:30:41;;;;;;;25.47;13.73;;;3.00;99.90;2.70;101827.00;;;;4973315;28;103385;-63
2022/03/26 01:33:06;;;;;;;18.57;12.40;;;2.90;99.90;2.70;101831.00;;;;4985445;28;93576;-63
2022/03/26 01:35:32;;;;;;;17.60;12.03;;;3.00;99.90;2.70;101827.00;;;;4993372;27;109697;-63
2022/03/26 01:38:04;;;;;;;17.10;10.43;;;3.00;99.90;2.70;101824.00;;;;4993762;28;113071;-63
2022/03/26 01:40:30;;;;;;;26.03;13.17;;;3.00;99.90;2.60;101827.00;;;;4994490;27;92823;-62
2022/03/26 01:42:56;;;;;;;15.90;10.07;;;2.90;99.90;2.60;101824.00;;;;4992784;28;112854;-63
2022/03/26 01:45:22;;;;;;;17.97;12.07;;;2.80;99.90;2.50;101832.00;;;;4991651;27;92919;-63
2022/03/26 01:47:48;;;;;;;21.87;10.87;;;2.80;99.90;2.50;101828.00;;;;4974801;27;92935;-62
2022/03/26 01:50:14;;;;;;;16.77;11.20;;;2.70;99.90;2.50;101818.00;;;;4972737;28;108238;-62
2022/03/26 01:52:39;;;;;;;22.27;13.10;;;2.80;99.90;2.40;101823.00;;;;4980444;28;122225;-63
2022/03/26 01:55:06;;;;;;;19.80;12.50;;;2.70;99.90;2.40;101814.00;;;;4993323;27;92835;-63
2022/03/26 01:57:32;;;;;;;15.67;10.60;;;2.60;99.90;2.30;101822.00;;;;4993675;27;93209;-63
2022/03/26 01:59:58;;;;;;;18.97;11.63;;;2.50;99.90;2.20;101814.00;;;;4990300;28;107283;-63
2022/03/26 02:02:25;;;;;;;18.77;12.00;;;2.50;99.90;2.10;101798.00;;;;4991321;27;121567;-62
2022/03/26 02:04:51;;;;;;;19.83;10.00;;;2.40;99.90;2.00;101804.00;;;;4993409;27;93393;-63
2022/03/26 02:07:17;;;;;;;18.57;10.43;;;2.30;99.90;2.00;101819.00;;;;4991909;27;92895;-63
2022/03/26 02:09:43;;;;;;;17.83;11.30;;;2.70;99.90;1.90;101799.00;;;;4990564;27;98496;-63
2022/03/26 02:12:25;;;;;;;15.87;10.80;;;2.20;99.90;1.90;101790.00;;;;4993288;27;93851;-63
2022/03/26 02:14:52;;;;;;;27.07;12.77;;;2.10;99.90;1.90;101795.00;;;;4982494;28;92910;-62
2022/03/26 02:17:19;;;;;;;21.30;11.83;;;2.20;99.90;1.90;101787.00;;;;4974917;28;92137;-63
2022/03/26 02:19:55;;;;;;;10.63;8.90;;;2.10;99.90;1.90;101801.00;;;;4973122;28;92847;-63
2022/03/26 02:22:23;;;;;;;17.10;9.20;;;2.20;99.90;1.90;101800.00;;;;4974663;28;113803;-61
2022/03/26 02:24:50;;;;;;;17.47;10.70;;;2.10;99.90;1.90;101798.00;;;;4982059;28;93609;-62
2022/03/26 02:27:16;;;;;;;18.50;11.83;;;2.20;99.90;2.00;101813.00;;;;4989223;28;92817;-62
2022/03/26 02:29:42;;;;;;;14.70;11.47;;;2.60;99.90;2.00;101795.00;;;;4976324;28;100875;-62
2022/03/26 02:32:08;;;;;;;15.67;11.03;;;2.20;99.90;2.00;101789.00;;;;4992985;27;121588;-63
2022/03/26 02:34:34;;;;;;;13.17;9.67;;;2.20;99.90;1.90;101788.00;;;;4992776;27;111788;-61
2022/03/26 02:37:00;;;;;;;17.97;10.03;;;2.20;99.90;1.90;101780.00;;;;4993545;28;93017;-62
2022/03/26 02:39:28;;;;;;;20.47;12.67;;;2.10;99.90;1.90;101790.00;;;;4993512;28;92788;-64
2022/03/26 02:41:54;;;;;;;13.53;10.17;;;2.10;99.90;1.90;101790.00;;;;4992371;27;100500;-62
2022/03/26 02:44:20;;;;;;;19.60;11.93;;;2.20;99.90;1.90;101790.00;;;;4993248;27;92779;-62
2022/03/26 02:46:46;;;;;;;21.20;11.50;;;2.10;99.90;1.80;101792.00;;;;4991920;27;105668;-62
2022/03/26 02:49:15;;;;;;;17.13;11.97;;;2.10;99.90;1.80;101785.00;;;;4992408;27;93831;-62
2022/03/26 02:51:42;;;;;;;22.57;11.50;;;2.10;99.90;1.70;101770.00;;;;4972308;28;102520;-63
2022/03/26 02:54:18;;;;;;;14.77;11.97;;;2.10;99.90;1.70;101786.00;;;;4973118;28;113676;-62
2022/03/26 02:56:45;;;;;;;23.27;13.77;;;1.90;99.90;1.70;101781.00;;;;4970623;28;93162;-62
2022/03/26 02:59:11;;;;;;;22.40;11.00;;;1.90;99.90;1.60;101785.00;;;;4973613;28;92895;-63
2022/03/26 03:01:38;;;;;;;17.53;12.37;;;1.90;99.90;1.60;101785.00;;;;4972152;28;92933;-63
2022/03/26 03:04:04;;;;;;;18.40;11.73;;;1.90;99.90;1.60;101786.00;;;;4973137;28;93778;-62
2022/03/26 03:06:30;;;;;;;14.50;10.87;;;1.90;99.90;1.60;101787.00;;;;4972948;28;92300;-62
2022/03/26 03:08:57;;;;;;;17.00;10.07;;;1.90;99.90;1.60;101786.00;;;;4970962;28;96077;-63
2022/03/26 03:11:23;;;;;;;20.60;11.67;;;1.90;99.90;1.60;101781.00;;;;4982834;28;96055;-63
2022/03/26 03:13:49;;;;;;;17.73;10.67;;;1.90;99.90;1.60;101781.00;;;;4991729;27;93674;-62
2022/03/26 03:16:15;;;;;;;19.67;10.13;;;2.00;99.90;1.60;101773.00;;;;4992496;27;92884;-63
2022/03/26 03:18:41;;;;;;;17.90;11.10;;;1.90;99.90;1.60;101777.00;;;;4992945;27;92975;-61
2022/03/26 03:21:08;;;;;;;16.60;11.23;;;1.90;99.90;1.50;101775.00;;;;4987204;28;93245;-63
2022/03/26 03:23:33;;;;;;;15.23;10.70;;;1.80;99.90;1.50;101784.00;;;;4973170;28;93715;-62
2022/03/26 03:25:59;;;;;;;19.13;10.60;;;1.80;99.90;1.40;101787.00;;;;4989672;28;110864;-60
2022/03/26 03:28:25;;;;;;;13.13;9.73;;;1.70;99.90;1.40;101785.00;;;;4980063;28;94795;-63
2022/03/26 03:30:51;;;;;;;22.63;9.70;;;1.80;99.90;1.30;101791.00;;;;4979580;28;92386;-62
2022/03/26 03:33:17;;;;;;;14.10;8.97;;;1.60;99.90;1.30;101791.00;;;;4992834;27;93113;-62
2022/03/26 03:35:43;;;;;;;14.70;10.67;;;1.60;99.90;1.20;101782.00;;;;4993007;27;92792;-62
2022/03/26 03:38:09;;;;;;;22.67;11.20;;;1.60;99.90;1.20;101798.00;;;;4991942;28;93850;-62
2022/03/26 03:40:35;;;;;;;15.23;10.80;;;1.50;99.90;1.20;101786.00;;;;4981477;28;112634;-64
2022/03/26 03:43:01;;;;;;;13.63;10.20;;;1.40;99.90;1.10;101774.00;;;;4992456;27;95343;-63
2022/03/26 03:45:27;;;;;;;18.47;11.10;;;1.40;99.90;1.10;101779.00;;;;4992090;28;99911;-62
2022/03/26 03:47:52;;;;;;;20.10;10.33;;;1.40;99.90;1.10;101784.00;;;;4993279;27;92850;-62
2022/03/26 03:50:18;;;;;;;16.23;11.63;;;1.40;99.90;1.10;101778.00;;;;4977988;28;120360;-63
2022/03/26 03:52:44;;;;;;;10.73;8.70;;;2.40;99.90;1.20;101775.00;;;;4972476;28;93343;-62
2022/03/26 03:55:11;;;;;;;14.60;10.83;;;1.40;99.90;1.20;101778.00;;;;4973301;28;92051;-63
2022/03/26 03:57:42;;;;;;;18.07;10.80;;;1.40;99.90;1.20;101768.00;;;;4972280;28;92858;-63
2022/03/26 04:00:10;;;;;;;15.87;9.80;;;1.40;99.90;1.10;101778.00;;;;4971832;28;94001;-63
2022/03/26 04:02:36;;;;;;;15.57;9.70;;;1.50;99.90;1.10;101771.00;;;;4972191;28;93868;-63
2022/03/26 04:05:01;;;;;;;17.47;10.43;;;1.50;99.90;1.10;101766.00;;;;4972958;28;92838;-63
2022/03/26 04:07:27;;;;;;;18.00;10.23;;;1.40;99.90;1.10;101772.00;;;;4978072;28;107898;-63
2022/03/26 04:09:53;;;;;;;21.33;12.50;;;1.40;99.90;1.10;101771.00;;;;4987271;28;123031;-63
2022/03/26 04:12:18;;;;;;;14.17;9.67;;;1.40;99.90;1.10;101770.00;;;;4971612;28;122793;-63
2022/03/26 04:14:44;;;;;;;14.77;8.63;;;1.40;99.90;1.10;101768.00;;;;4971940;28;113121;-63
2022/03/26 04:17:12;;;;;;;13.93;10.73;;;1.40;99.90;1.10;101774.00;;;;4977181;28;92807;-63
2022/03/26 04:19:39;;;;;;;21.20;11.27;;;1.40;99.90;1.10;101775.00;;;;4991013;27;92513;-63
2022/03/26 04:22:08;;;;;;;13.50;9.87;;;1.40;99.90;1.00;101776.00;;;;4991582;27;93164;-62
2022/03/26 04:24:36;;;;;;;17.50;11.17;;;1.30;99.90;1.00;101770.00;;;;4992354;27;92851;-63
2022/03/26 04:27:03;;;;;;;23.13;15.27;;;1.30;99.90;1.00;101771.00;;;;4990856;27;93779;-63
2022/03/26 04:29:29;;;;;;;26.73;13.10;;;1.30;99.90;1.00;101769.00;;;;4984046;27;93256;-63
2022/03/26 04:31:55;;;;;;;18.90;11.97;;;1.30;99.90;0.90;101773.00;;;;4992247;27;104493;-63
2022/03/26 04:34:21;;;;;;;18.33;12.03;;;1.20;99.90;0.90;101768.00;;;;4974800;28;113241;-62
2022/03/26 04:36:47;;;;;;;13.17;10.40;;;1.20;99.90;0.90;101767.00;;;;4989915;28;93044;-63
2022/03/26 04:39:13;;;;;;;20.17;11.57;;;1.20;99.90;0.80;101783.00;;;;4994393;28;122169;-62
2022/03/26 04:41:38;;;;;;;15.00;11.47;;;1.10;99.90;0.80;101782.00;;;;4993491;27;121860;-63
2022/03/26 04:44:05;;;;;;;19.80;11.10;;;1.20;99.90;0.80;101780.00;;;;4955274;28;113456;-63
2022/03/26 04:46:30;;;;;;;15.50;10.97;;;1.10;99.90;0.80;101778.00;;;;4969869;28;92887;-63
2022/03/26 04:48:56;;;;;;;13.37;9.93;;;1.10;99.90;0.80;101776.00;;;;4975028;28;93569;-63
2022/03/26 04:51:22;;;;;;;17.57;11.50;;;1.30;99.90;0.70;101786.00;;;;4974263;28;93719;-62
2022/03/26 04:53:47;;;;;;;15.43;11.43;;;1.00;99.90;0.70;101787.00;;;;4992319;28;110155;-63
2022/03/26 04:56:14;;;;;;;21.00;12.93;;;1.00;99.90;0.70;101781.00;;;;4992167;27;108748;-63
2022/03/26 04:58:39;;;;;;;15.90;11.87;;;1.60;99.90;0.70;101789.00;;;;4994759;27;94371;-63
2022/03/26 05:01:05;;;;;;;16.77;11.27;;;0.90;99.90;0.60;101786.00;;;;4994449;27;122417;-63
2022/03/26 05:03:31;;;;;;;20.87;13.33;;;0.90;99.90;0.60;101780.00;;;;4992985;27;92782;-63
2022/03/26 05:05:57;;;;;;;16.33;11.30;;;0.90;99.90;0.50;101786.00;;;;4974500;28;108121;-63
2022/03/26 05:08:22;;;;;;;14.87;10.33;;;0.80;99.90;0.50;101779.00;;;;4987832;28;122685;-63
2022/03/26 05:10:48;;;;;;;15.23;12.63;;;0.80;99.90;0.50;101779.00;;;;4994058;28;119890;-63
2022/03/26 05:13:15;;;;;;;14.67;10.17;;;0.80;99.90;0.60;101799.00;;;;4994440;28;92858;-63
2022/03/26 05:15:40;;;;;;;14.13;10.70;;;0.90;99.90;0.60;101796.00;;;;4994085;27;93650;-63
2022/03/26 05:18:06;;;;;;;14.80;11.47;;;0.90;99.90;0.60;101798.00;;;;4994337;28;94292;-63
2022/03/26 05:20:32;;;;;;;19.40;11.87;;;0.80;99.90;0.60;101798.00;;;;4993519;27;96677;-63
2022/03/26 05:22:58;;;;;;;16.63;11.37;;;0.90;99.90;0.70;101797.00;;;;4992529;28;106314;-63
2022/03/26 05:25:24;;;;;;;19.93;11.03;;;0.90;99.90;0.70;101792.00;;;;4994864;27;92757;-63
2022/03/26 05:27:52;;;;;;;21.23;12.30;;;1.00;99.90;0.70;101782.00;;;;4988797;27;124152;-63
2022/03/26 05:30:20;;;;;;;18.50;10.70;;;1.10;99.90;0.80;101792.00;;;;4992122;27;117274;-63
2022/03/26 05:32:45;;;;;;;15.70;11.57;;;1.00;99.90;0.80;101793.00;;;;4993479;27;92146;-63
2022/03/26 05:35:16;;;;;;;16.67;11.13;;;1.70;99.90;0.90;101798.00;;;;4995226;27;92713;-63
2022/03/26 05:37:43;;;;;;;19.53;12.63;;;1.20;99.90;1.00;101789.00;;;;4993463;27;93482;-63
2022/03/26 05:40:11;;;;;;;16.70;11.17;;;1.80;99.90;1.10;101802.00;;;;4992805;27;97628;-63
2022/03/26 05:42:37;;;;;;;21.57;12.70;;;1.40;99.90;1.30;101793.00;;;;4994251;27;92730;-62
2022/03/26 05:45:07;;;;;;;21.10;14.60;;;1.60;99.90;1.50;101790.00;;;;5008609;27;107612;-63
2022/03/26 05:47:35;;;;;;;29.70;17.23;;;1.70;99.90;1.60;101799.00;;;;4993637;27;92982;-63
2022/03/26 05:50:02;;;;;;;30.97;16.80;;;2.10;99.90;1.80;101799.00;;;;5001041;27;93264;-63
2022/03/26 05:52:28;;;;;;;22.07;14.43;;;2.00;99.90;2.00;101802.00;;;;4974597;28;92808;-62
2022/03/26 05:54:53;;;;;;;20.47;13.63;;;2.10;99.90;2.10;101805.00;;;;4974009;28;92911;-62
2022/03/26 05:57:19;;;;;;;22.33;13.20;;;2.40;99.90;2.30;101805.00;;;;4973300;28;121945;-63
2022/03/26 05:59:45;;;;;;;26.43;15.13;;;2.50;99.90;2.50;101805.00;;;;4972748;28;122502;-63
2022/03/26 06:02:13;;;;;;;23.07;12.60;;;2.70;99.90;2.80;101811.00;;;;4991652;28;110638;-63
2022/03/26 06:04:42;;;;;;;28.47;15.07;;;2.90;99.90;3.00;101808.00;;;;4991280;27;93722;-63
2022/03/26 06:07:09;;;;;;;23.17;13.00;;;3.10;99.90;3.30;101817.00;;;;4993602;28;93966;-63
2022/03/26 06:09:38;;;;;;;23.50;13.93;;;3.40;99.90;3.50;101814.00;;;;4992428;27;117061;-63
2022/03/26 06:12:06;;;;;;;24.97;14.80;;;3.60;99.90;3.70;101819.00;;;;4993831;27;92859;-63
2022/03/26 06:14:32;;;;;;;24.93;13.40;;;3.90;99.90;4.00;101825.00;;;;4988912;27;92779;-63
2022/03/26 06:16:58;;;;;;;19.20;13.20;;;4.00;99.90;4.30;101812.00;;;;4969017;28;116687;-63
2022/03/26 06:19:26;;;;;;;20.37;13.57;;;4.30;99.90;4.50;101823.00;;;;4970508;28;93468;-63
2022/03/26 06:21:52;;;;;;;21.17;13.50;;;4.60;99.90;4.80;101826.00;;;;4972271;28;92374;-63
2022/03/26 06:24:18;;;;;;;28.67;14.97;;;4.90;99.90;5.10;101828.00;;;;4977154;28;93174;-63
2022/03/26 06:26:44;;;;;;;19.80;12.67;;;5.10;99.90;5.40;101832.00;;;;4975828;27;111875;-63
2022/03/26 06:29:12;;;;;;;21.50;12.77;;;5.80;99.90;5.70;101827.00;;;;4976115;28;93840;-63
2022/03/26 06:31:38;;;;;;;22.60;12.67;;;5.60;99.90;5.90;101828.00;;;;4969347;28;93276;-63
2022/03/26 06:34:04;;;;;;;23.57;13.67;;;5.90;99.90;6.30;101827.00;;;;4970954;28;93230;-63
2022/03/26 06:36:30;;;;;;;28.87;14.23;;;6.30;99.90;6.60;101840.00;;;;4968004;28;113961;-63
2022/03/26 06:38:55;;;;;;;23.43;12.93;;;6.80;99.90;6.80;101844.00;;;;4977093;28;93243;-63
2022/03/26 06:41:21;;;;;;;23.17;14.33;;;7.30;99.90;7.10;101854.00;;;;4969266;28;92956;-63
2022/03/26 06:43:47;;;;;;;21.27;12.93;;;7.10;99.90;7.40;101840.00;;;;4969002;28;101952;-63
2022/03/26 06:46:13;;;;;;;21.33;13.57;;;7.40;99.90;7.70;101853.00;;;;4968887;28;111769;-63
2022/03/26 06:48:38;;;;;;;23.97;14.00;;;7.70;99.90;7.90;101856.00;;;;4972646;28;93211;-63
2022/03/26 06:51:08;;;;;;;20.07;13.10;;;7.90;99.90;8.10;101859.00;;;;4981049;28;113129;-64
2022/03/26 06:53:35;;;;;;;19.47;13.17;;;7.90;99.90;8.40;101865.00;;;;4974363;27;94211;-64
2022/03/26 06:56:05;;;;;;;23.97;14.70;;;8.40;99.90;8.70;101858.00;;;;4970100;28;94011;-65
2022/03/26 06:58:31;;;;;;;26.47;14.03;;;8.70;99.90;8.90;101849.00;;;;4970242;28;115691;-64
2022/03/26 07:00:58;;;;;;;22.37;14.00;;;8.90;99.90;9.10;101844.00;;;;4973735;27;92670;-64
2022/03/26 07:03:24;;;;;;;22.63;14.07;;;9.10;99.90;9.20;101843.00;;;;4971073;28;93105;-63
2022/03/26 07:05:50;;;;;;;27.13;13.97;;;9.20;99.50;9.30;101847.00;;;;4971952;28;117219;-64
2022/03/26 07:08:16;;;;;;;22.83;13.83;;;9.40;99.20;9.50;101845.00;;;;4977683;27;93662;-63
2022/03/26 07:10:45;;;;;;;25.57;14.47;;;9.50;97.40;9.60;101846.00;;;;4974916;28;107715;-64
2022/03/26 07:13:14;;;;;;;25.87;12.77;;;9.60;96.50;9.70;101855.00;;;;4970993;28;92992;-64
2022/03/26 07:15:41;;;;;;;27.97;15.47;;;9.80;95.90;9.90;101863.00;;;;4969109;28;93165;-65
2022/03/26 07:18:08;;;;;;;24.37;13.13;;;9.90;95.40;10.00;101847.00;;;;4972660;28;107068;-65
2022/03/26 07:20:33;;;;;;;28.53;14.63;;;10.00;95.00;10.20;101855.00;;;;4968704;28;92897;-65
2022/03/26 07:22:59;;;;;;;30.73;14.17;;;10.20;95.00;10.50;101856.00;;;;4969429;28;98733;-62
2022/03/26 07:25:25;;;;;;;26.70;14.43;;;10.50;94.10;10.70;101861.00;;;;4980033;28;122667;-66
2022/03/26 07:27:51;;;;;;;27.83;15.30;;;10.70;93.00;10.90;101860.00;;;;4975486;28;92982;-65
2022/03/26 07:30:17;;;;;;;24.33;14.03;;;10.90;91.40;11.00;101869.00;;;;4971644;28;106869;-64
2022/03/26 07:32:43;;;;;;;28.90;14.27;;;11.10;90.90;11.30;101863.00;;;;4972438;28;107841;-64
2022/03/26 07:35:09;;;;;;;20.63;12.53;;;11.30;90.00;11.40;101860.00;;;;4970022;27;109893;-64
2022/03/26 07:37:35;;;;;;;23.33;14.23;;;11.40;88.90;11.50;101865.00;;;;4968908;28;93642;-64
2022/03/26 07:40:02;;;;;;;24.17;13.27;;;11.60;87.40;11.70;101863.00;;;;4973152;28;93300;-64
2022/03/26 07:42:28;;;;;;;25.17;15.53;;;11.70;86.80;11.80;101865.00;;;;4973251;28;94130;-64
2022/03/26 07:44:54;;;;;;;29.50;14.53;;;11.90;85.70;12.10;101877.00;;;;4969423;28;93510;-64
2022/03/26 07:47:19;;;;;;;23.67;13.03;;;12.10;85.00;12.30;101877.00;;;;4968571;28;121742;-64
2022/03/26 07:49:46;;;;;;;21.53;13.17;;;12.70;84.70;12.60;101870.00;;;;4973293;28;92952;-64
2022/03/26 07:52:12;;;;;;;22.87;14.03;;;12.50;82.50;12.70;101857.00;;;;4973558;28;92939;-64
2022/03/26 07:54:38;;;;;;;22.37;13.73;;;12.70;79.90;12.80;101865.00;;;;4973207;27;93332;-63
2022/03/26 07:57:04;;;;;;;22.50;13.43;;;12.90;77.40;12.90;101852.00;;;;4971944;28;93485;-64
2022/03/26 07:59:31;;;;;;;23.80;12.97;;;13.00;76.80;13.00;101858.00;;;;4969845;28;92145;-63
2022/03/26 08:01:57;;;;;;;26.87;13.57;;;13.10;74.90;13.10;101874.00;;;;4970197;28;93266;-64
2022/03/26 08:04:22;;;;;;;20.70;13.13;;;13.20;73.60;13.20;101869.00;;;;4971323;28;93648;-64
2022/03/26 08:06:48;;;;;;;23.23;11.80;;;13.30;73.20;13.30;101877.00;;;;4968198;28;121150;-64
2022/03/26 08:09:14;;;;;;;24.60;13.03;;;13.30;72.70;13.40;101871.00;;;;4974560;28;112750;-64
2022/03/26 08:11:40;;;;;;;27.63;13.83;;;13.40;72.50;13.50;101872.00;;;;4970417;28;108403;-64
2022/03/26 08:14:05;;;;;;;19.10;12.27;;;13.60;71.80;13.80;101875.00;;;;4969740;27;93040;-65
2022/03/26 08:16:31;;;;;;;19.77;11.20;;;13.80;71.20;14.10;101874.00;;;;4970434;28;122500;-63
2022/03/26 08:18:57;;;;;;;20.20;11.83;;;14.00;70.10;14.20;101861.00;;;;4968581;28;113845;-64
2022/03/26 08:21:22;;;;;;;22.83;13.47;;;14.20;67.40;14.20;101870.00;;;;4969877;28;108774;-65
2022/03/26 08:23:48;;;;;;;22.00;12.90;;;14.30;66.50;14.20;101858.00;;;;4974955;28;111267;-64
2022/03/26 08:26:20;;;;;;;20.10;12.63;;;14.20;65.90;14.20;101856.00;;;;4971107;27;121790;-64
2022/03/26 08:28:54;;;;;;;29.27;13.83;;;14.30;65.50;14.30;101859.00;;;;4972912;28;92713;-65
2022/03/26 08:31:22;;;;;;;24.23;13.50;;;14.40;65.10;14.30;101864.00;;;;4971893;28;101213;-64
2022/03/26 08:33:49;;;;;;;24.73;12.33;;;14.40;65.00;14.50;101869.00;;;;4968766;28;93168;-64
2022/03/26 08:36:17;;;;;;;22.83;12.80;;;14.50;64.90;14.60;101882.00;;;;4968448;27;94674;-64
2022/03/26 08:38:45;;;;;;;24.67;11.07;;;14.60;64.50;14.70;101874.00;;;;4969368;28;93190;-64
2022/03/26 08:41:18;;;;;;;28.30;13.90;;;14.70;64.10;14.90;101876.00;;;;4968246;28;92797;-64
2022/03/26 08:43:43;;;;;;;22.80;12.33;;;14.90;63.60;14.90;101869.00;;;;4969091;28;95074;-63
2022/03/26 08:46:10;;;;;;;25.50;13.27;;;15.00;63.00;15.00;101865.00;;;;4966839;28;123871;-62
2022/03/26 08:48:35;;;;;;;16.50;12.27;;;15.10;62.80;15.10;101855.00;;;;4974808;28;92089;-64
2022/03/26 08:51:03;;;;;;;18.50;12.15;;;15.20;62.00;15.20;101856.00;;;;4968472;28;93017;-64
2022/03/26 08:53:29;;;;;;;25.53;11.77;;;15.20;62.00;15.20;101847.00;;;;4969953;28;95755;-63
2022/03/26 08:55:55;;;;;;;16.85;12.18;;;15.30;62.20;15.40;101833.00;;;;4968229;28;113116;-64
2022/03/26 08:58:21;;;;;;;16.13;10.88;;;15.40;62.20;15.60;101843.00;;;;4966873;28;111354;-64
2022/03/26 09:00:49;;;;;;;18.33;11.05;;;15.60;62.20;15.70;101836.00;;;;4967173;28;108968;-63
2022/03/26 09:03:17;;;;;;;18.88;10.52;;;15.70;61.20;15.90;101844.00;;;;4970584;28;93853;-63
2022/03/26 09:05:44;;;;;;;18.95;11.93;;;15.90;61.20;16.10;101852.00;;;;4967583;28;94426;-65
2022/03/26 09:08:09;;;;;;;21.67;11.10;;;16.10;61.30;16.30;101852.00;;;;4975087;28;93781;-64
2022/03/26 09:10:35;;;;;;;19.35;11.38;;;16.20;60.40;16.40;101840.00;;;;4966913;28;107210;-65
2022/03/26 09:13:02;;;;;;;17.52;10.10;;;16.40;59.10;16.40;101843.00;;;;4973538;28;92765;-64
2022/03/26 09:15:27;;;;;;;15.25;9.63;;;16.40;58.80;16.40;101849.00;;;;4967858;28;123107;-64
2022/03/26 09:17:53;;;;;;;15.80;9.55;;;16.50;59.00;16.50;101844.00;;;;4971058;28;112591;-65
2022/03/26 09:20:19;;;;;;;17.80;11.52;;;16.50;58.90;16.60;101850.00;;;;4971662;27;97985;-64
2022/03/26 09:22:45;;;;;;;16.83;10.25;;;16.60;58.40;16.70;101849.00;;;;4975194;28;121632;-64
2022/03/26 09:25:11;;;;;;;23.52;10.73;;;16.60;58.30;16.90;101843.00;;;;4974463;28;93966;-64
2022/03/26 09:27:36;;;;;;;16.90;9.10;;;16.80;58.50;17.10;101841.00;;;;4970451;28;103263;-64
2022/03/26 09:30:04;;;;;;;14.10;10.10;;;17.00;58.50;17.50;101842.00;;;;4977633;28;93595;-64
2022/03/26 09:32:30;;;;;;;20.05;9.75;;;17.20;58.20;17.80;101842.00;;;;4970254;28;93954;-63
2022/03/26 09:34:56;;;;;;;16.92;10.30;;;17.50;57.80;18.00;101845.00;;;;4971397;28;93141;-64
2022/03/26 09:37:22;;;;;;;19.95;10.85;;;17.80;56.20;18.00;101841.00;;;;4971369;28;92660;-64
2022/03/26 09:39:47;;;;;;;15.00;9.68;;;17.90;55.90;18.20;101840.00;;;;4973317;27;108095;-64
2022/03/26 09:42:15;;;;;;;19.77;10.55;;;18.00;54.90;18.00;101838.00;;;;4970389;28;105612;-64
2022/03/26 09:44:41;;;;;;;16.15;9.15;;;18.00;54.50;18.00;101830.00;;;;4969740;28;95008;-64
2022/03/26 09:47:08;;;;;;;12.07;8.43;;;17.90;54.90;18.20;101825.00;;;;4973021;28;92846;-64
2022/03/26 09:49:37;;;;;;;24.63;10.88;;;18.00;55.20;18.40;101829.00;;;;4968879;28;92839;-63
2022/03/26 09:52:05;;;;;;;19.58;10.00;;;18.20;54.70;18.60;101831.00;;;;4971206;28;95259;-64
2022/03/26 09:54:32;;;;;;;17.80;9.50;;;18.30;53.90;18.60;101827.00;;;;4973344;27;93667;-63
2022/03/26 09:56:58;;;;;;;18.83;9.05;;;18.40;53.40;18.60;101827.00;;;;4973593;28;93955;-63
2022/03/26 09:59:24;;;;;;;16.30;7.45;;;18.40;53.30;18.70;101819.00;;;;4971425;28;109253;-62
2022/03/26 10:01:50;;;;;;;12.40;7.18;;;18.50;53.20;19.00;101823.00;;;;4970759;28;92612;-64
2022/03/26 10:04:22;;;;;;;12.38;7.25;;;18.70;53.30;19.30;101816.00;;;;4976692;28;92814;-63
2022/03/26 10:06:57;;;;;;;11.88;7.10;;;19.00;52.60;19.50;101818.00;;;;4972026;28;92744;-63
2022/03/26 10:09:45;;;;;;;10.38;6.72;;;20.00;52.10;19.80;101812.00;;;;4977150;27;93668;-64
2022/03/26 10:12:21;;;;;;;7.72;5.32;;;19.50;51.60;19.90;101805.00;;;;4970865;28;92828;-63
2022/03/26 10:15:06;;;;;;;10.88;5.82;;;19.70;50.90;20.00;101805.00;;;;4970622;28;95810;-64
2022/03/26 10:17:36;;;;;;;10.27;6.63;;;19.80;50.40;20.10;101801.00;;;;4975838;28;92934;-64
2022/03/26 10:20:12;;;;;;;12.38;7.05;;;19.90;49.60;20.10;101805.00;;;;4970602;28;92571;-64
2022/03/26 10:22:48;;;;;;;9.90;5.82;;;19.90;49.40;20.20;101806.00;;;;4970217;28;93144;-62
2022/03/26 10:25:22;;;;;;;6.45;5.18;;;19.90;49.70;20.20;101802.00;;;;4975492;28;93671;-64
2022/03/26 10:27:56;;;;;;;9.80;5.43;;;20.00;48.90;20.20;101794.00;;;;4976444;28;92140;-63
2022/03/26 10:33:27;;;;;;;9.02;5.45;;;20.00;48.10;20.30;101799.00;;;;4969186;28;92898;-63
2022/03/26 10:36:03;;;;;;;8.27;5.60;;;20.00;48.70;20.60;101799.00;;;;4969906;28;94050;-63
2022/03/26 10:38:39;;;;;;;9.45;6.20;;;20.20;49.00;20.80;101785.00;;;;4976518;28;92897;-63
2022/03/26 10:41:07;;;;;;;9.30;6.53;;;20.50;48.40;21.00;101790.00;;;;4969706;28;92926;-64
2022/03/26 10:43:34;;;;;;;10.43;5.28;;;20.70;47.90;21.10;101790.00;;;;4972450;28;93471;-64